Time;durP1;ratioP1;P1;durP2;ratioP2;P2;SDS_P1;SDS_P2;PMS_P1;PMS_P2;Temp;Humidity;BMP_temperature;BMP_pressure;BME280_temperature;BME280_humidity;BME280_pressure;Samples;Min_cycle;Max_cycle;Signal;HPM_P1;HPM_P2
2021/10/23 00:00:18;;;;;;;4.82;0.98;;;;;;;8.85;61.81;100430.25;6247434;23;20307;-77
2021/10/23 00:02:43;;;;;;;5.43;1.10;;;;;;;8.83;61.39;100436.84;6248077;23;20035;-77
2021/10/23 00:05:09;;;;;;;4.88;0.70;;;;;;;8.83;62.27;100437.66;6247866;22;20366;-78
2021/10/23 00:07:34;;;;;;;6.78;0.80;;;;;;;8.68;62.67;100434.28;6248630;22;20008;-77
2021/10/23 00:10:00;;;;;;;3.58;0.77;;;;;;;8.69;61.73;100447.50;6246616;23;20045;-77
2021/10/23 00:12:25;;;;;;;4.53;0.80;;;;;;;8.66;60.38;100444.38;6247185;22;20407;-77
2021/10/23 00:14:50;;;;;;;6.35;0.85;;;;;;;8.67;61.45;100457.56;6247838;22;20004;-77
2021/10/23 00:17:18;;;;;;;3.72;0.77;;;;;;;8.57;62.14;100464.31;6248367;22;20004;-77
2021/10/23 00:19:43;;;;;;;2.70;0.60;;;;;;;8.62;62.46;100468.06;6246176;23;20074;-77
2021/10/23 00:22:09;;;;;;;4.15;0.82;;;;;;;8.52;63.67;100456.03;6222090;23;20008;-78
2021/10/23 00:24:34;;;;;;;8.75;0.88;;;;;;;8.56;64.31;100487.63;6246473;23;20108;-77
2021/10/23 00:27:01;;;;;;;7.18;0.73;;;;;;;8.54;64.65;100481.59;6245684;23;20008;-78
2021/10/23 00:29:27;;;;;;;4.68;1.13;;;;;;;8.56;63.35;100492.97;6247071;23;20008;-77
2021/10/23 00:31:53;;;;;;;1.98;0.57;;;;;;;8.55;63.51;100477.09;6245666;23;20099;-77
2021/10/23 00:34:20;;;;;;;7.57;1.00;;;;;;;8.66;62.82;100508.75;6247446;23;20390;-78
2021/10/23 00:36:46;;;;;;;3.08;0.77;;;;;;;8.68;62.27;100506.72;6221164;23;20083;-77
2021/10/23 00:39:11;;;;;;;4.60;0.80;;;;;;;8.64;62.94;100514.31;6246396;23;20086;-77
2021/10/23 00:41:36;;;;;;;3.70;0.75;;;;;;;8.63;62.96;100519.84;6247025;23;20008;-77
2021/10/23 00:44:02;;;;;;;6.63;0.90;;;;;;;8.62;62.51;100526.25;6245013;23;20088;-77
2021/10/23 00:46:28;;;;;;;6.80;0.80;;;;;;;8.59;62.18;100538.19;6196862;23;20004;-77
2021/10/23 00:48:53;;;;;;;4.85;0.65;;;;;;;8.59;62.13;100532.00;6245797;23;20066;-77
2021/10/23 00:51:20;;;;;;;7.28;1.05;;;;;;;8.36;62.62;100516.06;6220758;23;20091;-77
2021/10/23 00:53:46;;;;;;;5.65;1.02;;;;;;;8.56;61.73;100545.78;6247249;22;20004;-77
2021/10/23 00:56:12;;;;;;;2.45;0.80;;;;;;;8.53;62.67;100554.22;6248206;22;20146;-77
2021/10/23 00:58:39;;;;;;;6.97;0.85;;;;;;;8.52;62.71;100552.56;6251438;22;20015;-77
2021/10/23 01:01:04;;;;;;;5.03;0.65;;;;;;;8.31;62.27;100537.25;6247225;23;20014;-77
2021/10/23 01:03:30;;;;;;;2.15;0.50;;;;;;;8.54;62.14;100561.22;6245733;23;20083;-77
2021/10/23 01:05:56;;;;;;;4.57;0.80;;;;;;;8.22;62.51;100520.47;6246925;22;20011;-77
2021/10/23 01:08:22;;;;;;;3.17;1.25;;;;;;;8.54;63.04;100572.78;6247757;22;20012;-77
2021/10/23 01:10:47;;;;;;;6.65;0.82;;;;;;;8.57;62.52;100572.41;6247046;22;20004;-77
2021/10/23 01:13:14;;;;;;;2.90;0.68;;;;;;;8.60;63.00;100571.19;6245043;23;20035;-77
2021/10/23 01:15:40;;;;;;;5.35;0.80;;;;;;;8.66;64.20;100589.22;6246523;23;20069;-78
2021/10/23 01:18:07;;;;;;;3.83;0.88;;;;;;;8.62;63.26;100587.94;6245563;23;20082;-77
2021/10/23 01:20:34;;;;;;;7.40;0.90;;;;;;;8.43;63.12;100562.56;6246048;23;20015;-77
2021/10/23 01:23:00;;;;;;;5.40;0.73;;;;;;;8.74;62.93;100609.69;6221232;23;20311;-78
2021/10/23 01:25:28;;;;;;;4.88;1.13;;;;;;;8.74;63.67;100613.25;6220671;23;20087;-77
2021/10/23 01:27:55;;;;;;;4.50;0.82;;;;;;;8.66;63.51;100624.06;6246622;23;20023;-77
2021/10/23 01:30:23;;;;;;;3.17;0.90;;;;;;;8.64;63.41;100635.00;6247888;22;20008;-77
2021/10/23 01:32:49;;;;;;;1.63;0.50;;;;;;;8.67;63.31;100642.66;6247704;22;20069;-77
2021/10/23 01:35:14;;;;;;;5.32;1.00;;;;;;;8.66;62.96;100640.16;6246917;22;20018;-78
2021/10/23 01:37:46;;;;;;;4.88;0.80;;;;;;;8.16;62.03;100570.31;6247064;23;20119;-76
2021/10/23 01:40:23;;;;;;;5.53;0.85;;;;;;;8.49;63.15;100618.13;6243230;22;20008;-77
2021/10/23 01:42:49;;;;;;;5.38;0.90;;;;;;;8.64;63.05;100658.28;6248243;22;20014;-77
2021/10/23 01:45:15;;;;;;;2.53;0.60;;;;;;;8.62;63.52;100661.19;6245928;23;20015;-78
2021/10/23 01:47:42;;;;;;;8.45;0.90;;;;;;;8.62;63.35;100676.44;6221898;23;20027;-77
2021/10/23 01:50:20;;;;;;;4.72;0.90;;;;;;;8.65;61.10;100674.22;6246571;23;20008;-77
2021/10/23 01:52:46;;;;;;;3.80;0.70;;;;;;;8.65;62.77;100674.22;6246932;22;19996;-77
2021/10/23 01:55:15;;;;;;;4.97;0.88;;;;;;;8.61;62.90;100680.13;6225465;23;20035;-78
2021/10/23 01:57:41;;;;;;;4.85;0.70;;;;;;;8.49;62.77;100682.50;6256164;22;20007;-77
2021/10/23 02:00:08;;;;;;;3.67;0.60;;;;;;;8.58;62.92;100688.59;6248446;22;20008;-78
2021/10/23 02:02:34;;;;;;;4.70;0.80;;;;;;;8.53;62.45;100688.31;6251319;23;19992;-77
2021/10/23 02:04:59;;;;;;;5.47;0.75;;;;;;;8.52;62.18;100683.97;6254377;23;20130;-77
2021/10/23 02:07:25;;;;;;;6.18;0.65;;;;;;;8.61;62.75;100696.22;6222005;23;20008;-77
2021/10/23 02:09:50;;;;;;;2.88;0.55;;;;;;;8.58;61.49;100697.47;6246557;23;20318;-77
2021/10/23 02:12:16;;;;;;;6.72;0.80;;;;;;;8.58;60.65;100710.03;6247424;22;20004;-77
2021/10/23 02:14:41;;;;;;;4.47;0.60;;;;;;;8.61;62.26;100713.19;6246663;22;20019;-77
2021/10/23 02:17:08;;;;;;;5.35;0.60;;;;;;;8.56;62.43;100715.56;6244877;23;20121;-77
2021/10/23 02:19:33;;;;;;;3.63;0.80;;;;;;;8.52;63.22;100713.47;6247182;22;20004;-78
2021/10/23 02:21:58;;;;;;;5.13;0.68;;;;;;;8.52;63.23;100732.25;6246745;22;20030;-77
2021/10/23 02:24:24;;;;;;;5.28;1.08;;;;;;;8.51;63.75;100734.09;6221579;23;20008;-77
2021/10/23 02:26:51;;;;;;;6.13;0.70;;;;;;;8.41;63.78;100723.66;6245863;23;20267;-77
2021/10/23 02:29:17;;;;;;;6.32;0.75;;;;;;;8.30;63.86;100716.03;6195963;23;20346;-77
2021/10/23 02:31:42;;;;;;;2.47;0.68;;;;;;;8.44;63.67;100742.06;6247840;22;20070;-77
2021/10/23 02:34:08;;;;;;;5.18;0.85;;;;;;;8.45;63.67;100751.75;6245412;23;20058;-77
2021/10/23 02:36:33;;;;;;;3.63;0.85;;;;;;;8.38;63.71;100748.16;6246531;23;20019;-77
2021/10/23 02:38:59;;;;;;;3.03;0.60;;;;;;;8.48;63.66;100758.59;6245637;23;20012;-77
2021/10/23 02:41:25;;;;;;;6.22;0.60;;;;;;;8.41;63.57;100752.28;6219661;23;20007;-78
2021/10/23 02:43:55;;;;;;;3.63;0.65;;;;;;;8.55;64.49;100777.47;6244607;23;20039;-77
2021/10/23 02:46:21;;;;;;;2.67;0.60;;;;;;;8.61;63.42;100776.69;6246160;23;20008;-78
2021/10/23 02:48:46;;;;;;;3.72;0.55;;;;;;;8.64;63.76;100789.72;6246040;22;20046;-77
2021/10/23 02:51:12;;;;;;;9.25;0.65;;;;;;;8.59;63.83;100794.84;6245717;22;20000;-77
2021/10/23 02:53:38;;;;;;;4.45;0.90;;;;;;;8.59;64.67;100814.44;6245551;23;20062;-77
2021/10/23 02:56:04;;;;;;;4.53;0.60;;;;;;;8.43;63.63;100769.88;6246326;22;20023;-77
2021/10/23 02:58:29;;;;;;;5.05;0.88;;;;;;;8.51;63.73;100787.72;6246966;22;20011;-77
2021/10/23 03:00:55;;;;;;;2.90;0.47;;;;;;;8.63;63.72;100812.22;6245390;23;20016;-77
2021/10/23 03:03:21;;;;;;;1.48;0.40;;;;;;;8.64;63.89;100819.22;6194472;23;20032;-77
2021/10/23 03:05:47;;;;;;;4.70;0.60;;;;;;;8.36;63.67;100792.22;6246842;22;20026;-77
2021/10/23 03:08:14;;;;;;;2.45;0.52;;;;;;;8.56;62.31;100811.28;6244692;23;20012;-78
2021/10/23 03:10:40;;;;;;;5.97;0.60;;;;;;;8.73;61.86;100836.91;6219569;23;20000;-78
2021/10/23 03:13:05;;;;;;;2.10;0.45;;;;;;;8.60;61.98;100829.50;6246944;23;20031;-77
2021/10/23 03:15:32;;;;;;;4.10;0.90;;;;;;;8.59;63.26;100851.16;6250737;22;20008;-77
2021/10/23 03:18:00;;;;;;;4.18;0.68;;;;;;;8.50;63.27;100845.03;6246683;22;20298;-77
2021/10/23 03:20:25;;;;;;;6.88;0.70;;;;;;;8.40;64.25;100860.56;6244369;23;20422;-77
2021/10/23 03:22:51;;;;;;;3.20;0.70;;;;;;;8.20;64.72;100828.91;6245365;23;20008;-77
2021/10/23 03:25:16;;;;;;;3.75;0.77;;;;;;;8.34;64.71;100863.94;6245948;22;20077;-76
2021/10/23 03:27:42;;;;;;;4.50;0.88;;;;;;;8.30;64.58;100868.84;6247601;22;20005;-77
2021/10/23 03:30:08;;;;;;;3.15;0.50;;;;;;;8.34;63.62;100870.16;6246875;23;20004;-77
2021/10/23 03:32:33;;;;;;;4.15;0.57;;;;;;;8.31;64.10;100873.22;6245875;22;20043;-77
2021/10/23 03:35:02;;;;;;;2.05;0.40;;;;;;;8.24;63.69;100882.97;6244399;23;20004;-77
2021/10/23 03:37:32;;;;;;;2.53;0.50;;;;;;;8.27;64.50;100903.22;6220765;23;20004;-77
2021/10/23 03:39:58;;;;;;;2.88;0.68;;;;;;;8.22;63.18;100906.47;6245813;22;20051;-77
2021/10/23 03:42:26;;;;;;;3.85;0.68;;;;;;;8.26;63.85;100899.72;6248221;23;20284;-78
2021/10/23 03:44:52;;;;;;;4.50;0.68;;;;;;;8.23;62.24;100908.13;6225476;23;20016;-77
2021/10/23 03:47:18;;;;;;;3.58;0.60;;;;;;;8.20;62.12;100911.16;6245784;23;20031;-77
2021/10/23 03:49:44;;;;;;;1.75;0.40;;;;;;;8.12;62.46;100908.56;6245606;22;20591;-77
2021/10/23 03:52:10;;;;;;;2.97;0.50;;;;;;;8.05;62.53;100900.41;6246374;22;20034;-77
2021/10/23 03:54:36;;;;;;;5.88;0.50;;;;;;;8.04;62.71;100912.13;6219907;23;20008;-77
2021/10/23 03:57:03;;;;;;;2.83;0.50;;;;;;;7.92;62.13;100914.41;6245761;22;20005;-76
2021/10/23 03:59:28;;;;;;;3.80;0.47;;;;;;;8.00;62.81;100930.41;6246276;22;20067;-77
2021/10/23 04:01:54;;;;;;;3.75;0.50;;;;;;;7.87;62.52;100927.50;6219502;23;20094;-77
2021/10/23 04:04:19;;;;;;;3.80;0.50;;;;;;;7.92;63.51;100949.25;6246028;22;20008;-77
2021/10/23 04:06:44;;;;;;;3.88;0.40;;;;;;;7.92;64.98;100949.25;6245682;23;20009;-77
2021/10/23 04:09:10;;;;;;;2.83;0.50;;;;;;;7.82;65.38;100959.38;6244590;23;20280;-77
2021/10/23 04:11:35;;;;;;;2.67;0.40;;;;;;;7.88;66.32;100964.03;6245463;22;20008;-77
2021/10/23 04:14:03;;;;;;;6.15;0.90;;;;;;;8.06;65.14;100965.56;6243587;22;20024;-77
2021/10/23 04:16:29;;;;;;;3.33;0.40;;;;;;;8.18;64.99;100980.22;6245409;23;20021;-77
2021/10/23 04:18:54;;;;;;;1.65;0.50;;;;;;;7.92;64.83;100930.50;6244663;23;20008;-77
2021/10/23 04:21:20;;;;;;;2.80;0.50;;;;;;;8.21;64.49;100983.38;6245316;23;20083;-77
2021/10/23 04:23:45;;;;;;;1.88;0.45;;;;;;;8.21;66.02;100980.69;6245830;22;20402;-77
2021/10/23 04:26:10;;;;;;;4.18;0.70;;;;;;;8.31;64.92;100984.97;6220414;23;20075;-77
2021/10/23 04:28:37;;;;;;;2.97;0.40;;;;;;;8.19;64.85;100966.63;6196930;23;20008;-78
2021/10/23 04:31:03;;;;;;;1.83;0.30;;;;;;;8.03;65.82;100942.63;6221275;23;20012;-77
2021/10/23 04:33:28;;;;;;;3.80;0.50;;;;;;;8.43;65.99;101003.16;6248534;22;20430;-78
2021/10/23 04:35:54;;;;;;;1.55;0.40;;;;;;;8.47;66.23;101009.00;6222140;23;20027;-77
2021/10/23 04:38:19;;;;;;;1.30;0.40;;;;;;;8.45;64.02;101025.28;6246921;23;20004;-77
2021/10/23 04:40:45;;;;;;;2.88;0.30;;;;;;;8.49;64.05;101032.97;6248626;22;20004;-77
2021/10/23 04:43:11;;;;;;;7.03;1.15;;;;;;;8.25;63.67;101002.63;6222077;23;20008;-77
2021/10/23 04:45:36;;;;;;;6.60;0.77;;;;;;;8.26;64.71;101017.69;6250804;23;20038;-77
2021/10/23 04:48:03;;;;;;;2.88;0.38;;;;;;;8.31;66.26;101050.16;6229904;23;20008;-78
2021/10/23 04:50:29;;;;;;;2.50;0.40;;;;;;;8.24;66.54;101049.19;6222827;23;20042;-77
2021/10/23 04:52:54;;;;;;;3.75;0.43;;;;;;;7.76;66.60;100984.19;6247634;23;20407;-77
2021/10/23 04:55:20;;;;;;;1.88;0.60;;;;;;;8.19;66.45;101060.44;6247506;23;20008;-77
2021/10/23 04:57:45;;;;;;;1.42;0.30;;;;;;;7.98;64.35;101039.66;6229000;23;20007;-77
2021/10/23 05:00:11;;;;;;;3.22;0.40;;;;;;;7.98;64.21;101071.81;6247806;22;20054;-77
2021/10/23 05:02:36;;;;;;;4.47;0.85;;;;;;;7.80;64.55;101057.81;6248030;22;20015;-77
2021/10/23 05:05:03;;;;;;;1.58;0.30;;;;;;;7.79;63.06;101049.97;6245635;22;20198;-77
2021/10/23 05:07:29;;;;;;;1.92;0.50;;;;;;;7.79;64.58;101064.19;6194956;23;20150;-77
2021/10/23 05:09:56;;;;;;;3.47;0.40;;;;;;;7.94;64.08;101085.72;6220226;23;20418;-78
2021/10/23 05:12:22;;;;;;;1.67;0.20;;;;;;;7.75;62.27;101054.84;6220277;22;20019;-77
2021/10/23 05:14:47;;;;;;;3.78;0.50;;;;;;;7.90;63.41;101092.44;6246357;22;20357;-77
2021/10/23 05:17:12;;;;;;;7.63;0.90;;;;;;;7.83;63.65;101094.97;6246509;22;20077;-77
2021/10/23 05:19:38;;;;;;;4.65;0.50;;;;;;;7.83;63.95;101107.53;6245462;23;20326;-77
2021/10/23 05:22:03;;;;;;;1.30;0.28;;;;;;;7.75;63.88;101109.25;6245133;23;20011;-78
2021/10/23 05:24:29;;;;;;;1.70;0.35;;;;;;;7.70;64.51;101116.94;6194921;23;20015;-77
2021/10/23 05:26:55;;;;;;;3.70;0.50;;;;;;;7.37;64.19;101076.03;6244849;23;20019;-77
2021/10/23 05:29:20;;;;;;;1.60;0.38;;;;;;;7.49;64.66;101101.47;6245327;23;20395;-77
2021/10/23 05:31:46;;;;;;;1.13;0.30;;;;;;;7.60;64.33;101129.69;6246636;22;20066;-77
2021/10/23 05:34:12;;;;;;;2.95;0.50;;;;;;;7.56;64.00;101128.38;6246041;23;20018;-77
2021/10/23 05:36:37;;;;;;;2.97;0.40;;;;;;;7.51;65.08;101136.09;6247039;22;20042;-77
2021/10/23 05:39:02;;;;;;;3.20;0.43;;;;;;;7.50;66.06;101135.25;6246223;23;20399;-77
2021/10/23 05:41:28;;;;;;;2.58;0.40;;;;;;;7.48;66.89;101156.03;6246445;22;20468;-77
2021/10/23 05:43:53;;;;;;;2.97;0.50;;;;;;;7.45;67.72;101148.34;6245552;23;20012;-77
2021/10/23 05:46:19;;;;;;;2.05;0.70;;;;;;;7.42;68.72;101140.63;6219647;23;20036;-77
2021/10/23 05:48:44;;;;;;;1.92;0.40;;;;;;;7.48;67.83;101165.88;6245191;23;20039;-77
2021/10/23 05:51:09;;;;;;;3.35;0.70;;;;;;;7.39;67.17;101149.00;6245088;23;20008;-78
2021/10/23 05:53:35;;;;;;;2.38;0.60;;;;;;;7.46;67.42;101170.59;6245307;23;20008;-76
2021/10/23 05:56:00;;;;;;;3.75;0.50;;;;;;;7.50;68.27;101177.25;6245136;23;20407;-77
2021/10/23 05:58:30;;;;;;;3.35;0.50;;;;;;;7.44;68.97;101180.63;6219851;23;20008;-77
2021/10/23 06:01:05;;;;;;;7.10;0.65;;;;;;;7.29;70.06;101167.09;6221134;23;20012;-77
2021/10/23 06:03:32;;;;;;;3.22;0.60;;;;;;;7.43;70.32;101195.00;6249629;23;20004;-77
2021/10/23 06:05:58;;;;;;;4.20;0.40;;;;;;;7.44;69.75;101208.22;6226076;23;20024;-76
2021/10/23 06:08:24;;;;;;;2.58;0.30;;;;;;;7.47;69.33;101215.09;6253036;22;20468;-77
2021/10/23 06:10:49;;;;;;;3.13;0.43;;;;;;;7.34;68.35;101214.75;6251786;23;20012;-77
2021/10/23 06:13:17;;;;;;;3.10;0.40;;;;;;;7.40;68.01;101233.66;6250094;22;20091;-76
2021/10/23 06:15:43;;;;;;;3.35;0.55;;;;;;;7.46;68.79;101234.84;6251878;22;20003;-77
2021/10/23 06:18:08;;;;;;;1.48;0.40;;;;;;;7.42;68.69;101241.53;6245938;23;20004;-77
2021/10/23 06:20:34;;;;;;;2.25;0.30;;;;;;;7.41;67.63;101245.22;6246177;22;20028;-77
2021/10/23 06:22:59;;;;;;;3.35;0.38;;;;;;;7.35;68.14;101252.09;6194346;23;20004;-77
2021/10/23 06:25:25;;;;;;;2.10;0.40;;;;;;;7.31;68.25;101245.38;6246432;22;20023;-77
2021/10/23 06:27:51;;;;;;;2.50;0.40;;;;;;;7.41;67.25;101270.13;6219499;23;20054;-77
2021/10/23 06:30:16;;;;;;;2.65;0.50;;;;;;;7.35;67.49;101267.28;6245776;22;20062;-76
2021/10/23 06:32:48;;;;;;;1.02;0.40;;;;;;;7.39;66.65;101280.19;6244784;23;20008;-77
2021/10/23 06:35:14;;;;;;;3.63;0.32;;;;;;;7.37;66.31;101290.22;6246230;22;20004;-77
2021/10/23 06:37:41;;;;;;;3.35;0.38;;;;;;;7.33;66.49;101275.50;6250982;23;20024;-77
2021/10/23 06:40:08;;;;;;;4.28;0.73;;;;;;;7.02;66.28;101225.28;6247971;23;20023;-77
2021/10/23 06:42:33;;;;;;;2.60;0.40;;;;;;;7.37;65.92;101294.75;6245937;22;20004;-77
2021/10/23 06:44:59;;;;;;;2.42;0.52;;;;;;;7.22;66.93;101281.19;6219185;23;20314;-77
2021/10/23 06:47:24;;;;;;;1.73;0.40;;;;;;;7.36;66.27;101298.44;6244253;23;20005;-79
2021/10/23 06:49:51;;;;;;;1.35;0.28;;;;;;;7.31;65.49;101309.63;6244232;23;20364;-77
2021/10/23 06:52:17;;;;;;;3.53;0.75;;;;;;;7.28;65.34;101297.41;6219086;23;20042;-77
2021/10/23 06:54:42;;;;;;;4.65;0.95;;;;;;;7.41;65.43;101329.03;6247302;22;20292;-78
2021/10/23 06:57:08;;;;;;;2.70;0.32;;;;;;;7.36;65.48;101333.22;6246140;22;20150;-77
2021/10/23 06:59:33;;;;;;;2.45;0.40;;;;;;;7.17;65.03;101305.75;6220177;23;20031;-78
2021/10/23 07:01:59;;;;;;;2.95;0.40;;;;;;;7.30;65.43;101345.44;6195139;23;20106;-77
2021/10/23 07:04:24;;;;;;;3.80;0.47;;;;;;;7.22;66.36;101350.78;6246267;22;20398;-78
2021/10/23 07:06:49;;;;;;;3.50;0.40;;;;;;;7.16;65.60;101349.59;6245541;22;20043;-78
2021/10/23 07:09:16;;;;;;;0.77;0.20;;;;;;;7.10;65.29;101350.22;6219416;23;20011;-77
2021/10/23 07:11:42;;;;;;;1.67;0.45;;;;;;;7.14;64.70;101366.78;6219844;23;20018;-78
2021/10/23 07:14:07;;;;;;;3.55;0.32;;;;;;;7.23;64.99;101372.00;6219691;23;20111;-77
2021/10/23 07:16:33;;;;;;;3.33;0.20;;;;;;;7.28;64.43;101382.22;6245338;23;20008;-78
2021/10/23 07:18:58;;;;;;;1.08;0.22;;;;;;;7.30;63.42;101383.75;6244603;23;20445;-77
2021/10/23 07:21:25;;;;;;;2.13;0.40;;;;;;;7.29;63.37;101386.59;6245552;23;20018;-77
2021/10/23 07:23:53;;;;;;;1.65;0.25;;;;;;;7.38;63.72;101404.31;6244761;23;20114;-78
2021/10/23 07:26:19;;;;;;;1.90;0.40;;;;;;;7.39;64.85;101419.41;6245610;22;20042;-77
2021/10/23 07:28:44;;;;;;;3.03;0.28;;;;;;;7.23;65.12;101387.25;6220408;23;20020;-79
2021/10/23 07:31:09;;;;;;;2.45;0.30;;;;;;;7.50;64.73;101420.94;6246866;22;20466;-78
2021/10/23 07:33:35;;;;;;;0.88;0.20;;;;;;;7.51;64.77;101404.69;6247175;22;20023;-77
2021/10/23 07:36:00;;;;;;;2.60;0.70;;;;;;;7.65;64.32;101418.44;6245751;23;20038;-77
2021/10/23 07:38:26;;;;;;;1.20;0.22;;;;;;;7.67;64.23;101414.59;6245558;23;20004;-78
2021/10/23 07:40:51;;;;;;;3.88;0.30;;;;;;;7.71;63.36;101421.31;6244978;23;20008;-78
2021/10/23 07:43:17;;;;;;;1.92;0.28;;;;;;;7.75;62.68;101416.47;6220482;23;20015;-78
2021/10/23 07:45:42;;;;;;;2.88;0.40;;;;;;;7.68;62.92;101413.63;6246218;23;20020;-78
2021/10/23 07:48:09;;;;;;;1.13;0.30;;;;;;;7.86;62.71;101445.63;6221226;23;20008;-78
2021/10/23 07:50:35;;;;;;;1.15;0.38;;;;;;;7.91;62.87;101454.00;6251325;23;20004;-77
2021/10/23 07:53:02;;;;;;;1.52;0.30;;;;;;;7.86;61.98;101452.81;6246103;23;20421;-77
2021/10/23 07:55:30;;;;;;;2.78;0.30;;;;;;;7.99;62.15;101467.41;6221496;23;20010;-78
2021/10/23 07:57:56;;;;;;;1.65;0.20;;;;;;;7.97;61.21;101472.09;6249811;23;20012;-78
2021/10/23 08:00:23;;;;;;;1.27;0.30;;;;;;;7.96;62.07;101474.94;6248498;22;20476;-77
2021/10/23 08:02:52;;;;;;;1.58;0.30;;;;;;;8.05;61.27;101483.84;6252132;22;20027;-78
2021/10/23 08:05:19;;;;;;;1.10;0.30;;;;;;;8.13;61.77;101494.56;6250046;23;20042;-76
2021/10/23 08:07:45;;;;;;;1.30;0.30;;;;;;;8.14;61.48;101494.38;6257895;23;20741;-77
2021/10/23 08:10:11;;;;;;;3.67;0.40;;;;;;;8.18;61.61;101501.09;6232773;23;20077;-80
2021/10/23 08:12:36;;;;;;;2.95;0.30;;;;;;;8.14;61.18;101510.47;6252799;22;20059;-79
2021/10/23 08:15:02;;;;;;;2.95;0.30;;;;;;;7.97;61.62;101490.84;6227179;23;20008;-79
2021/10/23 08:17:29;;;;;;;1.60;0.30;;;;;;;8.07;62.23;101520.16;6253944;22;20000;-80
2021/10/23 08:19:55;;;;;;;1.23;0.22;;;;;;;8.08;62.11;101508.47;6253033;23;20008;-78
2021/10/23 08:22:21;;;;;;;1.55;0.22;;;;;;;8.13;62.37;101513.31;6233869;23;20062;-80
2021/10/23 08:24:48;;;;;;;1.30;0.40;;;;;;;8.12;61.99;101507.13;6259438;22;20016;-82
2021/10/23 08:27:14;;;;;;;4.65;0.73;;;;;;;7.92;60.42;101473.59;6202038;23;20042;-80
2021/10/23 08:29:41;;;;;;;0.88;0.20;;;;;;;8.34;59.55;101555.72;6248730;23;20019;-79
2021/10/23 08:32:06;;;;;;;0.40;0.20;;;;;;;8.41;57.80;101560.31;6223389;23;20016;-78
2021/10/23 08:34:32;;;;;;;1.88;0.50;;;;;;;8.38;58.22;101559.81;6246794;23;20021;-81
2021/10/23 08:36:57;;;;;;;1.15;0.30;;;;;;;8.36;57.20;101548.38;6249002;22;20074;-77
2021/10/23 08:39:22;;;;;;;1.13;0.30;;;;;;;8.38;57.30;101566.00;6248101;23;20299;-78
2021/10/23 08:41:49;;;;;;;1.35;0.30;;;;;;;8.40;57.49;101563.16;6221216;23;20015;-78
2021/10/23 08:44:17;;;;;;;1.35;0.17;;;;;;;8.39;57.88;101565.00;6247362;23;20015;-78
2021/10/23 08:46:44;;;;;;;1.15;0.30;;;;;;;8.36;56.80;101589.44;6247833;23;20362;-78
2021/10/23 08:49:09;;;;;;;1.30;0.40;;;;;;;8.34;57.28;101579.88;6253170;22;20426;-78
2021/10/23 08:51:35;;;;;;;4.47;0.38;;;;;;;8.33;57.39;101576.34;6256799;22;20008;-77
2021/10/23 08:54:02;;;;;;;1.00;0.40;;;;;;;8.31;56.69;101582.88;6252704;23;20012;-78
2021/10/23 08:56:27;;;;;;;1.60;0.30;;;;;;;8.43;56.25;101585.09;6249997;23;20015;-78
2021/10/23 08:58:53;;;;;;;1.35;0.40;;;;;;;8.47;55.64;101607.91;6250399;23;20004;-79
2021/10/23 09:01:19;;;;;;;0.57;0.30;;;;;;;8.49;54.99;101612.28;6222497;23;20008;-79
2021/10/23 09:03:48;;;;;;;1.50;0.60;;;;;;;8.52;55.37;101614.63;6223372;23;20070;-78
2021/10/23 09:06:35;;;;;;;3.22;0.30;;;;;;;8.53;55.03;101616.31;6254512;22;20008;-79
2021/10/23 09:09:21;;;;;;;0.47;0.30;;;;;;;8.67;55.37;101631.72;6250344;22;20004;-79
2021/10/23 09:11:48;;;;;;;1.30;0.40;;;;;;;8.75;55.39;101628.25;6248242;23;20000;-79
2021/10/23 09:14:21;;;;;;;2.28;0.47;;;;;;;8.79;55.14;101637.63;6248347;22;20028;-79
2021/10/23 09:16:48;;;;;;;0.70;0.35;;;;;;;8.80;54.34;101641.97;6222227;23;20012;-79
2021/10/23 09:19:14;;;;;;;0.60;0.30;;;;;;;8.73;54.10;101639.13;6247780;22;20012;-78
2021/10/23 09:21:39;;;;;;;0.73;0.50;;;;;;;8.87;54.13;101657.25;6247767;22;20004;-78
2021/10/23 09:24:22;;;;;;;1.23;0.30;;;;;;;8.95;53.25;101656.41;6246690;23;20340;-78
2021/10/23 09:26:50;;;;;;;1.33;0.30;;;;;;;8.87;53.78;101645.66;6246233;23;20158;-79
2021/10/23 09:29:19;;;;;;;1.33;0.30;;;;;;;8.83;52.51;101650.53;6246261;23;20016;-78
2021/10/23 09:31:49;;;;;;;0.93;0.20;;;;;;;9.01;53.51;101671.03;6247777;22;20322;-78
2021/10/23 09:34:16;;;;;;;1.58;0.32;;;;;;;9.00;53.35;101666.66;6245822;23;20015;-78
2021/10/23 09:37:02;;;;;;;0.80;0.47;;;;;;;9.08;52.03;101672.03;6248395;22;20015;-78
2021/10/23 09:39:34;;;;;;;1.67;0.30;;;;;;;9.17;52.89;101684.41;6247110;23;20454;-78
2021/10/23 09:42:09;;;;;;;0.30;0.20;;;;;;;9.20;52.43;101699.38;6248459;22;20066;-79
2021/10/23 09:45:04;;;;;;;0.20;0.20;;;;;;;9.18;51.65;101702.22;6247459;23;20030;-79
2021/10/23 09:47:40;;;;;;;2.65;0.40;;;;;;;9.07;51.17;101700.72;6247649;23;20074;-79
2021/10/23 09:50:15;;;;;;;0.40;0.35;;;;;;;9.14;51.69;101687.47;6247139;23;20015;-79
2021/10/23 09:53:09;;;;;;;2.47;0.28;;;;;;;9.28;51.76;101710.13;6248733;22;20012;-78
2021/10/23 09:55:53;;;;;;;0.50;0.20;;;;;;;9.16;50.38;101710.44;6246176;23;20008;-79
2021/10/23 09:58:23;;;;;;;0.20;0.17;;;;;;;9.23;50.73;101712.47;6248300;22;20061;-78
2021/10/23 10:00:50;;;;;;;1.45;0.30;;;;;;;9.19;51.61;101709.28;6249372;23;20008;-79
2021/10/23 10:03:20;;;;;;;1.27;0.20;;;;;;;9.39;51.96;101721.34;6247261;22;20054;-79
2021/10/23 10:06:11;;;;;;;0.98;0.40;;;;;;;9.46;52.18;101731.41;6246823;23;20288;-80
2021/10/23 10:08:37;;;;;;;0.82;0.30;;;;;;;9.48;51.31;101738.31;6217382;23;20073;-79
2021/10/23 10:11:02;;;;;;;0.75;0.22;;;;;;;9.50;51.58;101735.44;6250041;22;20240;-80
2021/10/23 10:13:28;;;;;;;1.10;0.20;;;;;;;9.53;51.58;101740.47;6248203;22;20019;-79
2021/10/23 10:15:58;;;;;;;0.50;0.22;;;;;;;9.57;50.49;101744.50;6221379;23;20306;-79
2021/10/23 10:18:25;;;;;;;1.02;0.32;;;;;;;9.30;51.00;101689.28;6247465;23;20066;-79
2021/10/23 10:20:56;;;;;;;0.50;0.30;;;;;;;9.63;50.75;101738.44;6255056;23;19992;-79
2021/10/23 10:23:45;;;;;;;0.30;0.20;;;;;;;9.68;48.56;101746.84;6248354;23;19999;-78
2021/10/23 10:26:14;;;;;;;0.57;0.20;;;;;;;9.71;50.24;101754.59;6247727;23;20012;-79
2021/10/23 10:29:12;;;;;;;0.35;0.20;;;;;;;9.72;49.27;101756.25;6251515;23;20007;-79
2021/10/23 10:32:16;;;;;;;2.00;0.28;;;;;;;9.83;49.26;101766.66;6246369;23;20030;-77
2021/10/23 10:35:34;;;;;;;1.23;0.20;;;;;;;9.83;49.56;101760.44;6245342;23;20007;-78
2021/10/23 10:42:54;;;;;;;0.50;0.20;;;;;;;9.92;49.20;101764.78;6252059;22;20042;-78
2021/10/23 10:45:49;;;;;;;0.28;0.10;;;;;;;10.03;48.89;101785.94;6255026;23;20406;-78
2021/10/23 10:48:27;;;;;;;0.52;0.20;;;;;;;10.00;48.30;101777.34;6246046;23;20010;-78
2021/10/23 10:51:20;;;;;;;0.35;0.20;;;;;;;10.07;48.91;101783.75;6246392;22;20000;-78
2021/10/23 10:53:49;;;;;;;1.15;0.20;;;;;;;10.11;48.28;101787.78;6246145;22;20023;-78
2021/10/23 10:56:17;;;;;;;0.95;0.20;;;;;;;10.09;48.18;101797.84;6247318;22;20008;-77
2021/10/23 10:58:50;;;;;;;0.63;0.22;;;;;;;10.09;48.62;101801.38;6250190;22;20412;-78
2021/10/23 11:01:21;;;;;;;0.50;0.20;;;;;;;10.17;48.34;101802.41;6251546;23;20004;-78
2021/10/23 11:03:55;;;;;;;1.23;0.25;;;;;;;10.13;48.32;101812.63;6257696;23;20418;-78
2021/10/23 11:06:46;;;;;;;0.60;0.20;;;;;;;10.09;48.37;101809.44;6250834;22;19999;-77
2021/10/23 11:09:16;;;;;;;0.30;0.10;;;;;;;10.09;47.91;101814.81;6246604;22;20024;-78
2021/10/23 11:11:44;;;;;;;0.98;0.30;;;;;;;10.11;47.98;101814.66;6245460;23;20004;-78
2021/10/23 11:19:28;;;;;;;0.80;0.20;;;;;;;10.13;48.00;101839.53;6245821;22;20016;-77
2021/10/23 11:22:15;;;;;;;0.20;0.20;;;;;;;10.15;48.28;101839.38;6244879;23;20023;-77
2021/10/23 11:25:08;;;;;;;1.08;0.28;;;;;;;10.10;46.75;101847.97;6245747;22;20011;-78
2021/10/23 11:27:36;;;;;;;0.77;0.35;;;;;;;10.15;46.93;101842.88;6244354;23;20012;-78
2021/10/23 11:30:05;;;;;;;0.20;0.20;;;;;;;10.09;46.87;101852.47;6245798;22;20000;-78
2021/10/23 11:32:30;;;;;;;1.77;0.30;;;;;;;10.05;47.32;101831.47;6245678;22;20011;-78
2021/10/23 11:34:56;;;;;;;1.65;0.40;;;;;;;10.12;47.86;101840.53;6249535;22;20011;-80
2021/10/23 11:37:25;;;;;;;0.60;0.20;;;;;;;10.20;49.25;101855.81;6253728;23;20008;-80
2021/10/23 11:40:07;;;;;;;0.82;0.30;;;;;;;10.17;50.52;101850.81;6250288;22;20364;-79
2021/10/23 11:42:43;;;;;;;0.88;0.40;;;;;;;10.07;51.21;101857.19;6246405;23;20118;-77
2021/10/23 11:45:38;;;;;;;1.02;0.40;;;;;;;9.88;51.49;101841.41;6248198;22;20003;-78